Keimoes, South Africa
Current Conditions -  °F | °C
As of 11:00 PM on Saturday 25 Oct 2014 (Local Time) from FAUP Reporting Station
NA  
Wind Chill: 75°   Ceiling: NA
Heat Index: 75°   Visibility: NA
Dew Point: 32°   Wind: 5mph
Humidity: 21%   Direction: 230°SW
Pressure: 29.94"   Gusts: NA
Location:  28.71°S, 20.98°E
Report Text: FAUP 252100Z AUTO 23004KT //// // ////// 24/00 Q1014
Loading
Personal Weather Stations






























Interactive Weather Map
Tropical Storm Tracking
New forecast layout! Learn more

10-Day Weather Forecast

Advertisements
Track Severe Weather on mobile